createdAt,value
2018-08-09T00:00:45.099Z,21.06
2018-08-09T00:01:54.948Z,21.04
2018-08-09T00:03:04.521Z,21.07
2018-08-09T00:04:14.368Z,20.97
2018-08-09T00:05:24.213Z,20.99
2018-08-09T00:06:34.065Z,20.91
2018-08-09T00:07:43.376Z,20.94
2018-08-09T00:08:53.229Z,20.92
2018-08-09T00:10:03.077Z,20.94
2018-08-09T00:11:12.915Z,20.82
2018-08-09T00:12:23.029Z,20.88
2018-08-09T00:13:32.874Z,20.82
2018-08-09T00:14:42.725Z,20.76
2018-08-09T00:15:52.313Z,20.79
2018-08-09T00:17:01.894Z,20.73
2018-08-09T00:18:11.744Z,20.69
2018-08-09T00:19:21.047Z,20.69
2018-08-09T00:20:30.355Z,20.7
2018-08-09T00:21:39.935Z,20.77
2018-08-09T00:22:49.514Z,20.72
2018-08-09T00:23:59.008Z,20.7
2018-08-09T00:25:08.852Z,20.7
2018-08-09T00:26:18.429Z,20.72
2018-08-09T00:27:27.740Z,20.72
2018-08-09T00:28:36.776Z,20.67
2018-08-09T00:29:46.350Z,20.61
2018-08-09T00:30:56.201Z,20.62
2018-08-09T00:32:06.333Z,20.59
2018-08-09T00:33:16.174Z,20.5
2018-08-09T00:34:25.748Z,20.47
2018-08-09T00:35:35.324Z,20.52
2018-08-09T00:36:44.897Z,20.51
2018-08-09T00:37:54.740Z,20.51
2018-08-09T00:39:04.317Z,20.5
2018-08-09T00:40:13.887Z,20.35
2018-08-09T00:41:24.017Z,20.35
2018-08-09T00:42:33.590Z,20.38
2018-08-09T00:43:43.430Z,20.38
2018-08-09T00:44:53.279Z,20.36
2018-08-09T00:46:03.123Z,20.38
2018-08-09T00:47:12.430Z,20.35
2018-08-09T00:48:22.277Z,20.38
2018-08-09T00:49:31.850Z,20.33
2018-08-09T00:50:41.430Z,20.28
2018-08-09T00:51:51.009Z,20.26
2018-08-09T00:53:00.580Z,20.21
2018-08-09T00:54:10.157Z,20.26
2018-08-09T00:55:19.459Z,20.21
2018-08-09T00:56:28.495Z,20.2
2018-08-09T00:57:38.349Z,20.18
2018-08-09T00:58:48.197Z,20.2
2018-08-09T00:59:57.503Z,20.14
2018-08-09T01:01:06.274Z,20.13
2018-08-09T01:02:15.580Z,20.14
2018-08-09T01:03:25.156Z,20.1
2018-08-09T01:04:34.728Z,20.14
2018-08-09T01:05:44.302Z,20.01
2018-08-09T01:06:53.928Z,20.08
2018-08-09T01:08:03.514Z,20.03
2018-08-09T01:09:12.545Z,20.05
2018-08-09T01:10:21.848Z,20.1
2018-08-09T01:11:31.154Z,20.14
2018-08-09T01:12:40.191Z,20.03
2018-08-09T01:13:50.037Z,20.01
2018-08-09T01:14:59.882Z,20.1
2018-08-09T01:16:09.458Z,20.03
2018-08-09T01:17:19.574Z,19.98
2018-08-09T01:18:29.416Z,19.92
2018-08-09T01:19:38.995Z,20.06
2018-08-09T01:20:48.844Z,20.02
2018-08-09T01:21:58.149Z,19.91
2018-08-09T01:23:07.725Z,19.91
2018-08-09T01:24:17.298Z,19.88
2018-08-09T01:25:27.144Z,19.95
2018-08-09T01:26:36.987Z,19.94
2018-08-09T01:27:46.565Z,20.01
2018-08-09T01:28:56.138Z,19.95
2018-08-09T01:30:05.446Z,19.86
2018-08-09T01:31:15.288Z,19.92
2018-08-09T01:32:24.856Z,19.88
2018-08-09T01:33:34.439Z,19.86
2018-08-09T01:34:43.742Z,19.92
2018-08-09T01:35:53.316Z,19.94
2018-08-09T01:37:03.167Z,19.95
2018-08-09T01:38:13.016Z,19.96
2018-08-09T01:39:22.318Z,19.95
2018-08-09T01:40:31.348Z,19.98
2018-08-09T01:41:41.465Z,19.98
2018-08-09T01:42:51.576Z,19.86
2018-08-09T01:44:01.150Z,19.87
2018-08-09T01:45:11.016Z,19.78
2018-08-09T01:46:20.052Z,19.88
2018-08-09T01:47:29.907Z,19.87
2018-08-09T01:48:40.023Z,19.87
2018-08-09T01:49:49.325Z,19.92
2018-08-09T01:50:58.903Z,19.88
2018-08-09T01:52:08.480Z,19.74
2018-08-09T01:53:18.593Z,19.83
2018-08-09T01:54:28.451Z,19.77
2018-08-09T01:55:38.293Z,19.74
2018-08-09T01:56:47.870Z,19.84
2018-08-09T01:57:57.991Z,19.77
2018-08-09T01:59:07.571Z,19.8
2018-08-09T02:00:16.880Z,19.84
2018-08-09T02:01:26.187Z,19.84
2018-08-09T02:02:36.030Z,19.83
2018-08-09T02:03:46.145Z,19.8
2018-08-09T02:04:56.206Z,19.83
2018-08-09T02:06:06.177Z,19.76
2018-08-09T02:07:16.110Z,19.8
2018-08-09T02:08:25.963Z,19.84
2018-08-09T02:09:35.275Z,19.8
2018-08-09T02:10:45.123Z,19.76
2018-08-09T02:11:54.703Z,19.78
2018-08-09T02:13:04.011Z,19.68
2018-08-09T02:14:13.589Z,19.68
2018-08-09T02:15:23.163Z,19.69
2018-08-09T02:16:32.736Z,19.69
2018-08-09T02:17:42.580Z,19.68
2018-08-09T02:18:52.156Z,19.55
2018-08-09T02:20:02.001Z,19.59
2018-08-09T02:21:12.115Z,19.62
2018-08-09T02:22:22.011Z,19.59
2018-08-09T02:23:31.863Z,19.62
2018-08-09T02:24:41.440Z,19.56
2018-08-09T02:25:51.549Z,19.55
2018-08-09T02:27:01.134Z,19.47
2018-08-09T02:28:10.711Z,19.5
2018-08-09T02:29:20.283Z,19.46
2018-08-09T02:30:30.140Z,19.55
2018-08-09T02:31:39.989Z,19.5
2018-08-09T02:32:50.120Z,19.44
2018-08-09T02:33:59.715Z,19.46
2018-08-09T02:35:09.572Z,19.39
2018-08-09T02:36:19.149Z,19.4
2018-08-09T02:37:29.004Z,19.41
2018-08-09T02:38:38.854Z,19.41
2018-08-09T02:39:48.704Z,19.4
2018-08-09T02:40:58.832Z,19.37
2018-08-09T02:42:08.689Z,19.39
2018-08-09T02:43:18.279Z,19.41
2018-08-09T02:44:27.862Z,19.44
2018-08-09T02:45:37.717Z,19.4
2018-08-09T02:46:47.778Z,19.4
2018-08-09T02:47:58.290Z,19.4
2018-08-09T02:49:08.149Z,19.44
2018-08-09T02:50:18.012Z,19.39
2018-08-09T02:51:27.868Z,19.31
2018-08-09T02:52:38.001Z,19.37
2018-08-09T02:53:47.854Z,19.23
2018-08-09T02:54:57.701Z,19.21
2018-08-09T02:56:07.821Z,19.26
2018-08-09T02:57:17.679Z,19.25
2018-08-09T02:58:27.826Z,19.22
2018-08-09T02:59:36.863Z,19.26
2018-08-09T03:00:46.991Z,19.23
2018-08-09T03:01:56.579Z,19.16
2018-08-09T03:03:06.437Z,19.19
2018-08-09T03:04:16.290Z,19.13
2018-08-09T03:05:25.323Z,19.22
2018-08-09T03:06:34.909Z,19.19
2018-08-09T03:07:44.763Z,19.22
2018-08-09T03:08:54.613Z,19.16
2018-08-09T03:10:04.754Z,19.28
2018-08-09T03:11:14.606Z,19.19
2018-08-09T03:12:23.917Z,19.16
2018-08-09T03:13:33.500Z,19.21
2018-08-09T03:14:43.349Z,19.22
2018-08-09T03:15:52.658Z,19.07
2018-08-09T03:17:02.508Z,19.04
2018-08-09T03:18:11.820Z,19.04
2018-08-09T03:19:21.939Z,19.11
2018-08-09T03:20:31.794Z,19.04
2018-08-09T03:21:41.376Z,19.11
2018-08-09T03:22:51.218Z,19.1
2018-08-09T03:24:01.335Z,19.1
2018-08-09T03:25:11.195Z,19.07
2018-08-09T03:26:20.772Z,19.08
2018-08-09T03:27:30.613Z,19.1
2018-08-09T03:28:40.464Z,18.95
2018-08-09T03:29:50.032Z,18.98
2018-08-09T03:30:59.329Z,18.99
2018-08-09T03:32:08.653Z,18.98
2018-08-09T03:33:18.500Z,18.99
2018-08-09T03:34:27.534Z,18.98
2018-08-09T03:35:37.644Z,18.98
2018-08-09T03:36:47.490Z,19
2018-08-09T03:37:57.070Z,18.95
2018-08-09T03:39:06.376Z,18.92
2018-08-09T03:40:16.219Z,18.94
2018-08-09T03:41:25.522Z,18.95
2018-08-09T03:42:35.096Z,18.94
2018-08-09T03:43:44.989Z,18.94
2018-08-09T03:44:54.850Z,18.99
2018-08-09T03:46:04.432Z,18.98
2018-08-09T03:47:14.276Z,18.94
2018-08-09T03:48:24.117Z,19.08
2018-08-09T03:49:33.693Z,18.98
2018-08-09T03:50:43.270Z,18.94
2018-08-09T03:51:53.399Z,18.92
2018-08-09T03:53:02.973Z,18.92
2018-08-09T03:54:12.560Z,18.98
2018-08-09T03:55:22.146Z,18.9
2018-08-09T03:56:31.995Z,18.85
2018-08-09T03:57:41.576Z,18.9
2018-08-09T03:58:51.158Z,18.87
2018-08-09T04:00:00.740Z,18.88
2018-08-09T04:01:10.314Z,18.85
2018-08-09T04:02:19.083Z,18.91
2018-08-09T04:03:28.392Z,18.99
2018-08-09T04:04:37.972Z,18.87
2018-08-09T04:05:47.554Z,18.87
2018-08-09T04:06:57.397Z,18.9
2018-08-09T04:08:06.447Z,18.85
2018-08-09T04:09:16.560Z,18.84
2018-08-09T04:10:26.691Z,18.88
2018-08-09T04:11:36.316Z,18.85
2018-08-09T04:12:46.196Z,18.87
2018-08-09T04:13:56.310Z,18.85
2018-08-09T04:15:06.160Z,18.76
2018-08-09T04:16:16.014Z,18.8
2018-08-09T04:17:25.590Z,18.82
2018-08-09T04:18:35.432Z,18.85
2018-08-09T04:19:44.737Z,18.85
2018-08-09T04:20:54.316Z,18.87
2018-08-09T04:22:03.621Z,18.87
2018-08-09T04:23:13.206Z,18.87
2018-08-09T04:24:22.785Z,18.85
2018-08-09T04:25:32.633Z,18.82
2018-08-09T04:26:42.366Z,18.78
2018-08-09T04:27:51.948Z,18.73
2018-08-09T04:29:01.258Z,18.78
2018-08-09T04:30:10.840Z,18.78
2018-08-09T04:31:20.684Z,18.8
2018-08-09T04:32:29.718Z,18.84
2018-08-09T04:33:39.850Z,18.85
2018-08-09T04:34:48.884Z,18.85
2018-08-09T04:35:58.465Z,18.8
2018-08-09T04:37:08.036Z,18.9
2018-08-09T04:38:18.157Z,18.82
2018-08-09T04:39:27.461Z,18.82
2018-08-09T04:40:36.762Z,18.82
2018-08-09T04:41:46.342Z,18.87
2018-08-09T04:42:55.999Z,18.88
2018-08-09T04:44:05.840Z,18.87
2018-08-09T04:45:15.412Z,18.82
2018-08-09T04:46:25.262Z,18.84
2018-08-09T04:47:34.842Z,18.82
2018-08-09T04:48:44.421Z,18.84
2018-08-09T04:49:54.276Z,18.82
2018-08-09T04:51:03.856Z,18.85
2018-08-09T04:52:13.430Z,18.87
2018-08-09T04:53:23.274Z,18.94
2018-08-09T04:54:33.119Z,18.91
2018-08-09T04:55:43.256Z,18.95
2018-08-09T04:56:53.109Z,18.94
2018-08-09T04:58:02.989Z,18.92
2018-08-09T04:59:12.996Z,18.87
2018-08-09T05:00:22.845Z,18.98
2018-08-09T05:01:32.701Z,18.87
2018-08-09T05:02:42.014Z,18.98
2018-08-09T05:03:51.859Z,19.04
2018-08-09T05:05:01.721Z,18.95
2018-08-09T05:06:11.848Z,18.92
2018-08-09T05:07:21.423Z,18.98
2018-08-09T05:08:31.273Z,19.04
2018-08-09T05:09:40.853Z,19.11
2018-08-09T05:10:50.697Z,19.08
2018-08-09T05:12:00.543Z,19.1
2018-08-09T05:13:10.656Z,19.08
2018-08-09T05:14:20.503Z,19.1
2018-08-09T05:15:30.083Z,19.06
2018-08-09T05:16:39.664Z,19.08
2018-08-09T05:17:48.978Z,19.25
2018-08-09T05:18:58.555Z,19.19
2018-08-09T05:20:08.126Z,19.25
2018-08-09T05:21:17.702Z,19.16
2018-08-09T05:22:27.009Z,19.23
2018-08-09T05:23:36.594Z,19.28
2018-08-09T05:24:46.709Z,19.28
2018-08-09T05:25:56.308Z,19.31
2018-08-09T05:27:06.162Z,19.29
2018-08-09T05:28:15.737Z,19.36
2018-08-09T05:29:25.593Z,19.39
2018-08-09T05:30:35.177Z,19.32
2018-08-09T05:31:44.493Z,19.41
2018-08-09T05:32:54.344Z,19.41
2018-08-09T05:34:03.391Z,19.41
2018-08-09T05:35:13.596Z,19.39
2018-08-09T05:36:22.902Z,19.29
2018-08-09T05:37:32.485Z,19.36
2018-08-09T05:38:41.521Z,19.39
2018-08-09T05:39:51.102Z,19.44
2018-08-09T05:41:00.726Z,19.4
2018-08-09T05:42:10.846Z,19.46
2018-08-09T05:43:20.425Z,19.47
2018-08-09T05:44:30.341Z,19.47
2018-08-09T05:45:40.186Z,19.47
2018-08-09T05:46:50.026Z,19.44
2018-08-09T05:48:00.151Z,19.5
2018-08-09T05:49:09.460Z,19.61
2018-08-09T05:50:18.763Z,19.51
2018-08-09T05:51:28.872Z,19.51
2018-08-09T05:52:37.968Z,19.46
2018-08-09T05:53:47.961Z,19.59
2018-08-09T05:54:57.541Z,19.62
2018-08-09T05:56:06.849Z,19.61
2018-08-09T05:57:16.963Z,19.61
2018-08-09T05:58:26.940Z,19.62
2018-08-09T05:59:37.005Z,19.63
2018-08-09T06:00:46.844Z,19.63
2018-08-09T06:01:56.151Z,19.62
2018-08-09T06:03:05.731Z,19.68
2018-08-09T06:04:15.843Z,19.58
2018-08-09T06:05:24.881Z,19.69
2018-08-09T06:06:34.455Z,19.68
2018-08-09T06:07:44.580Z,19.71
2018-08-09T06:08:54.703Z,19.69
2018-08-09T06:10:04.548Z,19.74
2018-08-09T06:11:14.388Z,19.78
2018-08-09T06:12:24.498Z,19.76
2018-08-09T06:13:34.670Z,19.8
2018-08-09T06:14:44.867Z,19.77
2018-08-09T06:15:54.719Z,19.91
2018-08-09T06:17:04.312Z,19.88
2018-08-09T06:18:14.429Z,19.91
2018-08-09T06:19:24.555Z,19.98
2018-08-09T06:20:34.139Z,19.91
2018-08-09T06:21:43.987Z,19.92
2018-08-09T06:22:53.561Z,19.98
2018-08-09T06:24:03.140Z,20.02
2018-08-09T06:25:12.997Z,20.08
2018-08-09T06:26:23.313Z,20.13
2018-08-09T06:27:33.147Z,20.1
2018-08-09T06:28:43.391Z,20.1
2018-08-09T06:29:53.761Z,20.1
2018-08-09T06:31:03.067Z,20.11
2018-08-09T06:32:12.920Z,20.13
2018-08-09T06:33:22.584Z,20.2
2018-08-09T06:34:32.860Z,20.2
2018-08-09T06:35:42.449Z,20.28
2018-08-09T06:36:51.758Z,20.23
2018-08-09T06:38:01.605Z,20.2
2018-08-09T06:39:10.647Z,20.26
2018-08-09T06:40:20.224Z,20.32
2018-08-09T06:41:30.346Z,20.32
2018-08-09T06:42:40.182Z,20.31
2018-08-09T06:43:49.219Z,20.29
2018-08-09T06:44:58.522Z,20.33
2018-08-09T06:46:08.112Z,20.35
2018-08-09T06:47:17.971Z,20.32
2018-08-09T06:48:27.542Z,20.31
2018-08-09T06:49:36.850Z,20.33
2018-08-09T06:50:46.428Z,20.35
2018-08-09T06:51:56.003Z,20.36
2018-08-09T06:53:05.586Z,20.52
2018-08-09T06:54:15.440Z,20.48
2018-08-09T06:55:24.748Z,20.54
2018-08-09T06:56:34.870Z,20.59
2018-08-09T06:57:44.452Z,20.52
2018-08-09T06:58:54.024Z,20.47
2018-08-09T07:00:03.867Z,20.52
2018-08-09T07:01:13.439Z,20.58
2018-08-09T07:02:23.014Z,20.55
2018-08-09T07:03:32.873Z,20.67
2018-08-09T07:04:42.725Z,20.73
2018-08-09T07:05:52.848Z,20.72
2018-08-09T07:07:02.830Z,20.82
2018-08-09T07:08:12.930Z,20.77
2018-08-09T07:09:22.520Z,20.95
2018-08-09T07:10:32.380Z,20.92
2018-08-09T07:11:42.009Z,21.01
2018-08-09T07:12:52.075Z,21.13
2018-08-09T07:14:01.923Z,21.13
2018-08-09T07:15:12.040Z,21.16
2018-08-09T07:16:21.345Z,21.16
2018-08-09T07:17:30.973Z,21.24
2018-08-09T07:18:41.092Z,21.35
2018-08-09T07:19:50.940Z,21.28
2018-08-09T07:21:00.793Z,21.27
2018-08-09T07:22:10.909Z,21.35
2018-08-09T07:23:20.485Z,21.46
2018-08-09T07:24:29.522Z,21.4
2018-08-09T07:25:39.104Z,21.47
2018-08-09T07:26:48.412Z,21.56
2018-08-09T07:27:57.989Z,21.62
2018-08-09T07:29:07.573Z,21.65
2018-08-09T07:30:16.887Z,21.68
2018-08-09T07:31:27.012Z,21.68
2018-08-09T07:32:36.864Z,21.64
2018-08-09T07:33:46.547Z,21.75
2018-08-09T07:34:56.504Z,21.79
2018-08-09T07:36:06.357Z,21.82
2018-08-09T07:37:16.202Z,21.9
2018-08-09T07:38:25.786Z,21.84
2018-08-09T07:39:36.218Z,21.86
2018-08-09T07:40:46.604Z,21.88
2018-08-09T07:41:55.911Z,21.88
2018-08-09T07:43:06.031Z,22.02
2018-08-09T07:44:15.870Z,22.09
2018-08-09T07:45:25.447Z,22.05
2018-08-09T07:46:35.352Z,22.12
2018-08-09T07:47:44.926Z,22.21
2018-08-09T07:48:55.014Z,22.22
2018-08-09T07:50:04.324Z,22.15
2018-08-09T07:51:13.919Z,22.3
2018-08-09T07:52:23.507Z,22.36
2018-08-09T07:53:32.814Z,22.43
2018-08-09T07:54:42.129Z,22.46
2018-08-09T07:55:51.434Z,22.43
2018-08-09T07:57:01.147Z,22.51
2018-08-09T07:58:10.981Z,22.67
2018-08-09T07:59:20.288Z,22.76
2018-08-09T08:00:30.138Z,22.85
2018-08-09T08:01:39.983Z,22.9
2018-08-09T08:02:49.559Z,22.9
2018-08-09T08:03:58.873Z,23
2018-08-09T08:05:08.463Z,23.02
2018-08-09T08:06:18.855Z,23.12
2018-08-09T08:07:28.446Z,23.27
2018-08-09T08:08:38.031Z,23.33
2018-08-09T08:09:47.600Z,23.35
2018-08-09T08:10:57.192Z,23.33
2018-08-09T08:12:06.773Z,23.42
2018-08-09T08:13:16.349Z,23.5
2018-08-09T08:14:25.927Z,23.5
2018-08-09T08:15:35.832Z,23.58
2018-08-09T08:16:45.411Z,23.53
2018-08-09T08:17:54.724Z,23.51
2018-08-09T08:19:04.574Z,23.58
2018-08-09T08:20:14.148Z,23.63
2018-08-09T08:21:23.995Z,23.6
2018-08-09T08:22:33.388Z,23.58
2018-08-09T08:23:43.242Z,23.73
2018-08-09T08:24:53.091Z,23.75
2018-08-09T08:26:02.126Z,23.78
2018-08-09T08:27:11.990Z,23.79
2018-08-09T08:28:21.570Z,23.75
2018-08-09T08:29:31.140Z,23.76
2018-08-09T08:30:40.987Z,23.75
2018-08-09T08:31:50.562Z,23.76
2018-08-09T08:32:59.871Z,23.73
2018-08-09T08:34:09.723Z,23.76
2018-08-09T08:35:19.573Z,23.79
2018-08-09T08:36:29.422Z,23.9
2018-08-09T08:37:39.281Z,23.91
2018-08-09T08:38:48.854Z,24.02
2018-08-09T08:39:58.706Z,23.93
2018-08-09T08:41:08.571Z,23.97
2018-08-09T08:42:18.733Z,24.08
2018-08-09T08:43:28.986Z,24.05
2018-08-09T08:44:38.837Z,24.02
2018-08-09T08:45:48.151Z,24.2
2018-08-09T08:46:57.458Z,24.15
2018-08-09T08:48:07.578Z,24.12
2018-08-09T08:49:16.894Z,24.2
2018-08-09T08:50:26.209Z,24.27
2018-08-09T08:51:36.327Z,24.21
2018-08-09T08:52:46.446Z,24.25
2018-08-09T08:53:55.489Z,24.25
2018-08-09T08:55:05.418Z,24.22
2018-08-09T08:56:15.372Z,24.15
2018-08-09T08:57:24.675Z,24.21
2018-08-09T08:58:34.527Z,24.28
2018-08-09T08:59:44.155Z,24.27
2018-08-09T09:00:54.133Z,24.21
2018-08-09T09:02:03.830Z,24.3
2018-08-09T09:03:13.525Z,24.31
2018-08-09T09:04:23.383Z,24.32
2018-08-09T09:05:33.077Z,24.39
2018-08-09T09:06:43.201Z,24.37
2018-08-09T09:07:52.782Z,24.45
2018-08-09T09:09:02.363Z,24.37
2018-08-09T09:10:11.981Z,24.45
2018-08-09T09:11:22.106Z,24.42
2018-08-09T09:12:31.679Z,24.45
2018-08-09T09:13:41.399Z,24.45
2018-08-09T09:14:51.471Z,24.43
2018-08-09T09:16:01.058Z,24.53
2018-08-09T09:17:10.901Z,24.52
2018-08-09T09:18:20.758Z,24.58
2018-08-09T09:19:30.339Z,24.55
2018-08-09T09:20:39.917Z,24.53
2018-08-09T09:21:49.494Z,24.55
2018-08-09T09:22:59.336Z,24.57
2018-08-09T09:24:09.185Z,24.57
2018-08-09T09:25:18.768Z,24.61
2018-08-09T09:26:28.894Z,24.61
2018-08-09T09:27:38.467Z,24.55
2018-08-09T09:28:48.063Z,24.55
2018-08-09T09:29:57.645Z,24.67
2018-08-09T09:31:06.974Z,24.6
2018-08-09T09:32:16.819Z,24.67
2018-08-09T09:33:26.675Z,24.64
2018-08-09T09:34:36.787Z,24.61
2018-08-09T09:35:46.643Z,24.69
2018-08-09T09:36:55.678Z,24.73
2018-08-09T09:38:05.794Z,24.78
2018-08-09T09:39:15.648Z,24.71
2018-08-09T09:40:25.233Z,24.77
2018-08-09T09:41:35.083Z,24.78
2018-08-09T09:42:44.400Z,24.78
2018-08-09T09:43:54.260Z,24.95
2018-08-09T09:45:04.108Z,24.93
2018-08-09T09:46:13.958Z,24.95
2018-08-09T09:47:23.814Z,24.88
2018-08-09T09:48:33.117Z,24.99
2018-08-09T09:49:43.117Z,25
2018-08-09T09:50:52.575Z,24.99
2018-08-09T09:52:02.416Z,25.08
2018-08-09T09:53:11.728Z,25.21
2018-08-09T09:54:21.308Z,25.25
2018-08-09T09:55:30.908Z,25.18
2018-08-09T09:56:40.767Z,25.24
2018-08-09T09:57:50.431Z,25.28
2018-08-09T09:59:00.011Z,25.27
2018-08-09T10:00:09.317Z,25.32
2018-08-09T10:01:18.358Z,25.4
2018-08-09T10:02:28.077Z,25.3
2018-08-09T10:03:37.475Z,25.36
2018-08-09T10:04:46.786Z,25.32
2018-08-09T10:05:56.641Z,25.35
2018-08-09T10:07:06.136Z,25.43
2018-08-09T10:08:16.323Z,25.39
2018-08-09T10:09:25.952Z,25.39
2018-08-09T10:10:36.067Z,25.43
2018-08-09T10:11:46.157Z,25.38
2018-08-09T10:12:55.998Z,25.4
2018-08-09T10:14:06.125Z,25.28
2018-08-09T10:15:15.714Z,25.33
2018-08-09T10:16:25.876Z,25.27
2018-08-09T10:17:35.736Z,25.24
2018-08-09T10:18:45.746Z,25.21
2018-08-09T10:19:55.825Z,25.24
2018-08-09T10:21:05.953Z,25.2
2018-08-09T10:22:15.806Z,25.21
2018-08-09T10:23:25.382Z,25.23
2018-08-09T10:24:35.238Z,25.24
2018-08-09T10:25:45.089Z,25.2
2018-08-09T10:26:55.206Z,25.24
2018-08-09T10:28:04.850Z,25.28
2018-08-09T10:29:13.889Z,25.32
2018-08-09T10:30:23.747Z,25.33
2018-08-09T10:31:33.627Z,25.39
2018-08-09T10:32:43.200Z,25.32
2018-08-09T10:33:52.782Z,25.39
2018-08-09T10:35:02.627Z,25.38
2018-08-09T10:36:12.204Z,25.39
2018-08-09T10:37:21.784Z,25.36
2018-08-09T10:38:31.638Z,25.32
2018-08-09T10:39:41.218Z,25.38
2018-08-09T10:40:51.271Z,25.4
2018-08-09T10:42:00.589Z,25.46
2018-08-09T10:43:09.897Z,25.38
2018-08-09T10:44:19.214Z,25.32
2018-08-09T10:45:28.798Z,25.38
2018-08-09T10:46:38.919Z,25.3
2018-08-09T10:47:48.765Z,25.23
2018-08-09T10:48:59.048Z,25.24
2018-08-09T10:50:08.792Z,25.38
2018-08-09T10:51:18.707Z,25.28
2018-08-09T10:52:28.367Z,25.28
2018-08-09T10:53:37.942Z,25.3
2018-08-09T10:54:47.795Z,25.24
2018-08-09T10:55:57.391Z,25.2
2018-08-09T10:57:07.334Z,25.23
2018-08-09T10:58:16.918Z,25.18
2018-08-09T10:59:26.734Z,25.09
2018-08-09T11:00:36.667Z,25.05
2018-08-09T11:01:47.153Z,25.06
2018-08-09T11:02:57.306Z,24.88
2018-08-09T11:04:06.630Z,24.85
2018-08-09T11:05:16.250Z,24.9
2018-08-09T11:06:26.717Z,24.8
2018-08-09T11:07:35.933Z,24.67
2018-08-09T11:08:46.588Z,24.67
2018-08-09T11:09:56.777Z,24.62
2018-08-09T11:11:06.777Z,24.65
2018-08-09T11:12:17.078Z,24.6
2018-08-09T11:13:26.961Z,24.53
2018-08-09T11:14:36.740Z,24.69
2018-08-09T11:15:46.328Z,24.55
2018-08-09T11:16:56.710Z,24.43
2018-08-09T11:18:06.495Z,24.4
2018-08-09T11:19:16.635Z,24.31
2018-08-09T11:20:26.262Z,24.3
2018-08-09T11:21:36.165Z,24.15
2018-08-09T11:22:45.810Z,24.1
2018-08-09T11:23:55.838Z,24.15
2018-08-09T11:25:05.596Z,24.2
2018-08-09T11:26:15.731Z,24.28
2018-08-09T11:27:25.369Z,24.34
2018-08-09T11:28:35.357Z,24.3
2018-08-09T11:29:44.682Z,24.35
2018-08-09T11:30:54.601Z,24.39
2018-08-09T11:32:04.786Z,24.31
2018-08-09T11:33:14.814Z,24.31
2018-08-09T11:34:24.420Z,24.22
2018-08-09T11:35:33.784Z,24.16
2018-08-09T11:36:43.642Z,24.09
2018-08-09T11:37:53.547Z,24.02
2018-08-09T11:39:02.949Z,23.9
2018-08-09T11:40:12.848Z,23.91
2018-08-09T11:41:22.724Z,23.93
2018-08-09T11:42:32.063Z,23.93
2018-08-09T11:43:41.746Z,23.91
2018-08-09T11:44:51.592Z,23.94
2018-08-09T11:46:01.439Z,23.91
2018-08-09T11:47:11.290Z,23.93
2018-08-09T11:48:20.602Z,23.97
2018-08-09T11:49:29.886Z,23.8
2018-08-09T11:50:39.860Z,23.78
2018-08-09T11:51:50.179Z,23.9
2018-08-09T11:53:00.484Z,23.76
2018-08-09T11:54:10.607Z,23.73
2018-08-09T11:55:20.399Z,23.72
2018-08-09T11:56:30.965Z,23.65
2018-08-09T11:57:41.335Z,23.68
2018-08-09T11:58:51.272Z,23.73
2018-08-09T12:00:01.036Z,23.72
2018-08-09T12:01:10.618Z,23.79
2018-08-09T12:02:20.796Z,23.75
2018-08-09T12:03:31.043Z,23.83
2018-08-09T12:04:41.419Z,23.79
2018-08-09T12:05:50.742Z,23.76
2018-08-09T12:07:00.918Z,23.78
2018-08-09T12:08:11.132Z,23.78
2018-08-09T12:09:21.314Z,23.79
2018-08-09T12:10:30.946Z,23.94
2018-08-09T12:11:40.539Z,23.98
2018-08-09T12:12:50.394Z,24
2018-08-09T12:13:59.711Z,24.21
2018-08-09T12:15:09.395Z,24.35
2018-08-09T12:16:19.353Z,24.57
2018-08-09T12:17:29.208Z,24.76
2018-08-09T12:18:39.332Z,24.84
2018-08-09T12:19:49.180Z,24.88
2018-08-09T12:20:59.177Z,25
2018-08-09T12:22:08.834Z,25.18
2018-08-09T12:23:18.411Z,25.38
2018-08-09T12:24:27.952Z,25.46
2018-08-09T12:25:37.710Z,25.55
2018-08-09T12:26:47.894Z,25.52
2018-08-09T12:27:56.916Z,25.47
2018-08-09T12:29:07.043Z,25.43
2018-08-09T12:30:16.395Z,25.52
2018-08-09T12:31:26.016Z,25.28
2018-08-09T12:32:35.597Z,25.42
2018-08-09T12:33:44.910Z,25.43
2018-08-09T12:34:54.769Z,25.45
2018-08-09T12:36:04.622Z,25.52
2018-08-09T12:37:13.940Z,25.6
2018-08-09T12:38:23.808Z,25.62
2018-08-09T12:39:33.658Z,25.51
2018-08-09T12:40:42.970Z,25.61
2018-08-09T12:41:52.287Z,25.7
2018-08-09T12:43:01.974Z,25.64
2018-08-09T12:44:11.886Z,25.83
2018-08-09T12:45:22.376Z,25.79
2018-08-09T12:46:32.849Z,25.94
2018-08-09T12:47:42.437Z,25.92
2018-08-09T12:48:52.290Z,25.85
2018-08-09T12:50:02.408Z,25.9
2018-08-09T12:51:11.986Z,25.92
2018-08-09T12:52:21.296Z,26.05
2018-08-09T12:53:31.154Z,26.09
2018-08-09T12:54:40.735Z,26.2
2018-08-09T12:55:50.321Z,26.39
2018-08-09T12:56:59.631Z,26.5
2018-08-09T12:58:09.221Z,26.6
2018-08-09T12:59:19.337Z,26.89
2018-08-09T13:00:28.659Z,27.03
2018-08-09T13:01:37.988Z,27.32
2018-08-09T13:02:47.578Z,27.49
2018-08-09T13:03:57.163Z,27.47
2018-08-09T13:05:06.767Z,27.49
2018-08-09T13:06:16.886Z,27.66
2018-08-09T13:07:27.009Z,27.87
2018-08-09T13:08:36.874Z,27.88
2018-08-09T13:09:46.741Z,28
2018-08-09T13:10:55.813Z,28.11
2018-08-09T13:12:05.682Z,28.33
2018-08-09T13:13:15.537Z,28.03
2018-08-09T13:14:24.903Z,28.25
2018-08-09T13:15:35.037Z,28.39
2018-08-09T13:16:44.899Z,28.51
2018-08-09T13:17:54.768Z,28.59
2018-08-09T13:19:04.359Z,28.8
2018-08-09T13:20:14.220Z,28.76
2018-08-09T13:21:24.363Z,28.85
2018-08-09T13:22:34.219Z,28.96
2018-08-09T13:23:43.269Z,29.09
2018-08-09T13:24:52.872Z,29.09
2018-08-09T13:26:02.738Z,29.16
2018-08-09T13:27:12.062Z,29.21
2018-08-09T13:28:20.839Z,29.28
2018-08-09T13:29:30.693Z,29.3
2018-08-09T13:30:40.838Z,29.48
2018-08-09T13:31:50.703Z,29.64
2018-08-09T13:33:00.292Z,29.48
2018-08-09T13:34:09.885Z,29.64
2018-08-09T13:35:19.750Z,29.65
2018-08-09T13:36:29.388Z,29.7
2018-08-09T13:37:39.261Z,29.67
2018-08-09T13:38:49.399Z,29.85
2018-08-09T13:39:58.720Z,29.76
2018-08-09T13:41:08.318Z,29.98
2018-08-09T13:42:17.374Z,30
2018-08-09T13:43:26.571Z,30.15
2018-08-09T13:44:35.860Z,30.23
2018-08-09T13:45:45.182Z,30.47
2018-08-09T13:46:54.795Z,30.42
2018-08-09T13:48:04.925Z,30.75
2018-08-09T13:49:14.794Z,30.89
2018-08-09T13:50:24.397Z,30.84
2018-08-09T13:51:34.434Z,30.77
2018-08-09T13:52:43.872Z,31.01
2018-08-09T13:53:54.178Z,31.23
2018-08-09T13:55:03.766Z,31.06
2018-08-09T13:56:13.360Z,31.23
2018-08-09T13:57:23.226Z,31.13
2018-08-09T13:58:32.917Z,31.28
2018-08-09T13:59:42.205Z,31.34
2018-08-09T14:00:51.532Z,31.38
2018-08-09T14:02:01.141Z,31.57
2018-08-09T14:03:10.456Z,31.65
2018-08-09T14:04:20.047Z,31.65
2018-08-09T14:05:29.642Z,31.72
2018-08-09T14:06:39.235Z,31.69
2018-08-09T14:07:48.843Z,31.69
2018-08-09T14:08:58.707Z,31.86
2018-08-09T14:10:08.578Z,31.8
2018-08-09T14:11:18.726Z,31.92
2018-08-09T14:12:28.582Z,31.81
2018-08-09T14:13:38.705Z,31.32
2018-08-09T14:14:48.032Z,31.14
2018-08-09T14:15:57.356Z,30.88
2018-08-09T14:17:07.223Z,31.02
2018-08-09T14:18:16.273Z,30.98
2018-08-09T14:19:25.866Z,30.88
2018-08-09T14:20:35.452Z,30.91
2018-08-09T14:21:45.041Z,30.97
2018-08-09T14:22:54.892Z,30.86
2018-08-09T14:24:04.756Z,30.73
2018-08-09T14:25:14.509Z,30.77
2018-08-09T14:26:23.822Z,30.88
2018-08-09T14:27:33.674Z,30.98
2018-08-09T14:28:42.993Z,31.09
2018-08-09T14:29:52.846Z,31.12
2018-08-09T14:31:02.705Z,31.31
2018-08-09T14:32:12.838Z,31.31
2018-08-09T14:33:22.694Z,31.43
2018-08-09T14:34:32.022Z,31.17
2018-08-09T14:35:41.882Z,31.28
2018-08-09T14:36:50.660Z,31.14
2018-08-09T14:38:00.530Z,31.1
2018-08-09T14:39:09.842Z,31.13
2018-08-09T14:40:19.155Z,30.98
2018-08-09T14:41:29.015Z,30.97
2018-08-09T14:42:38.878Z,30.88
2018-08-09T14:43:48.828Z,30.99
2018-08-09T14:44:58.679Z,30.95
2018-08-09T14:46:08.828Z,30.83
2018-08-09T14:47:18.415Z,30.72
2018-08-09T14:48:28.270Z,30.86
2018-08-09T14:49:38.132Z,30.67
2018-08-09T14:50:47.724Z,30.75
2018-08-09T14:51:57.581Z,30.8
2018-08-09T14:53:07.172Z,30.67
2018-08-09T14:54:16.774Z,30.6
2018-08-09T14:55:26.084Z,30.42
2018-08-09T14:56:35.400Z,30.47
2018-08-09T14:57:45.248Z,30.35
2018-08-09T14:58:54.837Z,30.2
2018-08-09T15:00:04.431Z,30.26
2018-08-09T15:01:14.554Z,30.26
2018-08-09T15:02:24.409Z,30.11